sensor_id;sensor_type;location;lat;lon;timestamp;P1;durP1;ratioP1;P2;durP2;ratioP2
21438;SDS011;10880;50.302;18.736;2022-10-16T00:01:40;4.30;;;3.90;;
21438;SDS011;10880;50.302;18.736;2022-10-16T00:04:07;5.70;;;3.47;;
21438;SDS011;10880;50.302;18.736;2022-10-16T00:06:34;3.83;;;3.43;;
21438;SDS011;10880;50.302;18.736;2022-10-16T00:09:01;5.20;;;3.30;;
21438;SDS011;10880;50.302;18.736;2022-10-16T00:11:29;3.70;;;3.30;;
21438;SDS011;10880;50.302;18.736;2022-10-16T00:13:59;4.17;;;3.70;;
21438;SDS011;10880;50.302;18.736;2022-10-16T00:16:27;4.10;;;3.63;;
21438;SDS011;10880;50.302;18.736;2022-10-16T00:18:54;5.37;;;4.00;;
21438;SDS011;10880;50.302;18.736;2022-10-16T00:21:25;5.70;;;4.47;;
21438;SDS011;10880;50.302;18.736;2022-10-16T00:24:12;4.23;;;3.60;;
21438;SDS011;10880;50.302;18.736;2022-10-16T00:26:38;5.27;;;3.80;;
21438;SDS011;10880;50.302;18.736;2022-10-16T00:29:06;5.30;;;4.20;;
21438;SDS011;10880;50.302;18.736;2022-10-16T00:31:33;4.37;;;3.97;;
21438;SDS011;10880;50.302;18.736;2022-10-16T00:34:00;6.43;;;4.60;;
21438;SDS011;10880;50.302;18.736;2022-10-16T00:36:26;4.07;;;3.67;;
21438;SDS011;10880;50.302;18.736;2022-10-16T00:38:54;4.67;;;4.13;;
21438;SDS011;10880;50.302;18.736;2022-10-16T00:41:22;4.87;;;3.80;;
21438;SDS011;10880;50.302;18.736;2022-10-16T00:43:51;4.40;;;3.80;;
21438;SDS011;10880;50.302;18.736;2022-10-16T00:46:21;3.63;;;3.20;;
21438;SDS011;10880;50.302;18.736;2022-10-16T00:51:18;5.13;;;4.30;;
21438;SDS011;10880;50.302;18.736;2022-10-16T00:53:48;4.20;;;3.53;;
21438;SDS011;10880;50.302;18.736;2022-10-16T00:56:15;5.90;;;3.87;;
21438;SDS011;10880;50.302;18.736;2022-10-16T00:58:42;5.33;;;4.40;;
21438;SDS011;10880;50.302;18.736;2022-10-16T01:01:09;5.40;;;4.30;;
21438;SDS011;10880;50.302;18.736;2022-10-16T01:03:35;3.93;;;3.53;;
21438;SDS011;10880;50.302;18.736;2022-10-16T01:11:40;5.63;;;4.80;;
21438;SDS011;10880;50.302;18.736;2022-10-16T01:14:22;4.00;;;3.60;;
21438;SDS011;10880;50.302;18.736;2022-10-16T01:17:08;4.80;;;3.93;;
21438;SDS011;10880;50.302;18.736;2022-10-16T01:22:21;6.93;;;4.13;;
21438;SDS011;10880;50.302;18.736;2022-10-16T01:24:52;4.07;;;3.67;;
21438;SDS011;10880;50.302;18.736;2022-10-16T01:27:25;4.20;;;3.63;;
21438;SDS011;10880;50.302;18.736;2022-10-16T01:30:13;4.77;;;3.70;;
21438;SDS011;10880;50.302;18.736;2022-10-16T01:32:50;5.43;;;4.03;;
21438;SDS011;10880;50.302;18.736;2022-10-16T01:35:23;4.97;;;4.00;;
21438;SDS011;10880;50.302;18.736;2022-10-16T01:37:57;4.30;;;3.77;;
21438;SDS011;10880;50.302;18.736;2022-10-16T01:40:52;5.13;;;4.10;;
21438;SDS011;10880;50.302;18.736;2022-10-16T01:43:28;5.03;;;3.80;;
21438;SDS011;10880;50.302;18.736;2022-10-16T01:46:00;6.30;;;4.17;;
21438;SDS011;10880;50.302;18.736;2022-10-16T01:48:27;5.93;;;4.13;;
21438;SDS011;10880;50.302;18.736;2022-10-16T01:51:00;4.50;;;3.83;;
21438;SDS011;10880;50.302;18.736;2022-10-16T01:53:36;4.60;;;4.00;;
21438;SDS011;10880;50.302;18.736;2022-10-16T01:56:04;4.93;;;3.93;;
21438;SDS011;10880;50.302;18.736;2022-10-16T01:58:35;4.20;;;3.60;;
21438;SDS011;10880;50.302;18.736;2022-10-16T02:01:05;5.03;;;4.13;;
21438;SDS011;10880;50.302;18.736;2022-10-16T02:03:36;5.37;;;4.20;;
21438;SDS011;10880;50.302;18.736;2022-10-16T02:06:06;3.80;;;3.40;;
21438;SDS011;10880;50.302;18.736;2022-10-16T02:08:33;4.77;;;3.90;;
21438;SDS011;10880;50.302;18.736;2022-10-16T02:11:00;5.60;;;3.87;;
21438;SDS011;10880;50.302;18.736;2022-10-16T02:13:32;5.20;;;4.07;;
21438;SDS011;10880;50.302;18.736;2022-10-16T02:16:12;3.60;;;3.30;;
21438;SDS011;10880;50.302;18.736;2022-10-16T02:18:40;4.00;;;3.60;;
21438;SDS011;10880;50.302;18.736;2022-10-16T02:21:11;3.37;;;3.03;;
21438;SDS011;10880;50.302;18.736;2022-10-16T02:23:51;3.53;;;3.20;;
21438;SDS011;10880;50.302;18.736;2022-10-16T02:26:30;4.23;;;3.50;;
21438;SDS011;10880;50.302;18.736;2022-10-16T02:29:16;4.20;;;3.40;;
21438;SDS011;10880;50.302;18.736;2022-10-16T02:31:46;4.73;;;3.57;;
21438;SDS011;10880;50.302;18.736;2022-10-16T02:34:16;5.97;;;4.20;;
21438;SDS011;10880;50.302;18.736;2022-10-16T02:36:46;4.97;;;4.10;;
21438;SDS011;10880;50.302;18.736;2022-10-16T02:39:15;4.27;;;3.80;;
21438;SDS011;10880;50.302;18.736;2022-10-16T02:41:43;4.43;;;3.50;;
21438;SDS011;10880;50.302;18.736;2022-10-16T02:44:10;4.00;;;3.60;;
21438;SDS011;10880;50.302;18.736;2022-10-16T02:46:37;6.77;;;4.40;;
21438;SDS011;10880;50.302;18.736;2022-10-16T02:49:04;5.83;;;4.60;;
21438;SDS011;10880;50.302;18.736;2022-10-16T02:51:30;5.87;;;4.70;;
21438;SDS011;10880;50.302;18.736;2022-10-16T02:53:57;6.80;;;5.23;;
21438;SDS011;10880;50.302;18.736;2022-10-16T02:56:23;4.73;;;3.90;;
21438;SDS011;10880;50.302;18.736;2022-10-16T02:58:49;5.50;;;4.20;;
21438;SDS011;10880;50.302;18.736;2022-10-16T03:01:16;4.37;;;3.97;;
21438;SDS011;10880;50.302;18.736;2022-10-16T03:03:42;6.07;;;4.57;;
21438;SDS011;10880;50.302;18.736;2022-10-16T03:06:09;7.20;;;4.83;;
21438;SDS011;10880;50.302;18.736;2022-10-16T03:08:35;6.53;;;5.17;;
21438;SDS011;10880;50.302;18.736;2022-10-16T03:11:01;5.30;;;4.30;;
21438;SDS011;10880;50.302;18.736;2022-10-16T03:13:28;4.43;;;4.03;;
21438;SDS011;10880;50.302;18.736;2022-10-16T03:15:54;6.07;;;4.67;;
21438;SDS011;10880;50.302;18.736;2022-10-16T03:18:20;5.40;;;3.90;;
21438;SDS011;10880;50.302;18.736;2022-10-16T03:20:47;5.20;;;4.10;;
21438;SDS011;10880;50.302;18.736;2022-10-16T03:23:13;4.57;;;3.87;;
21438;SDS011;10880;50.302;18.736;2022-10-16T03:25:40;3.87;;;3.43;;
21438;SDS011;10880;50.302;18.736;2022-10-16T03:28:06;5.57;;;4.40;;
21438;SDS011;10880;50.302;18.736;2022-10-16T03:30:33;4.17;;;3.67;;
21438;SDS011;10880;50.302;18.736;2022-10-16T03:32:59;7.10;;;5.20;;
21438;SDS011;10880;50.302;18.736;2022-10-16T03:35:26;5.20;;;4.20;;
21438;SDS011;10880;50.302;18.736;2022-10-16T03:37:52;5.17;;;4.60;;
21438;SDS011;10880;50.302;18.736;2022-10-16T03:40:19;4.70;;;3.90;;
21438;SDS011;10880;50.302;18.736;2022-10-16T03:42:45;4.27;;;3.47;;
21438;SDS011;10880;50.302;18.736;2022-10-16T03:45:11;4.20;;;3.57;;
21438;SDS011;10880;50.302;18.736;2022-10-16T03:47:38;4.33;;;3.63;;
21438;SDS011;10880;50.302;18.736;2022-10-16T03:50:04;4.20;;;3.80;;
21438;SDS011;10880;50.302;18.736;2022-10-16T03:52:31;4.50;;;3.80;;
21438;SDS011;10880;50.302;18.736;2022-10-16T03:54:58;4.23;;;3.40;;
21438;SDS011;10880;50.302;18.736;2022-10-16T03:57:24;4.43;;;3.80;;
21438;SDS011;10880;50.302;18.736;2022-10-16T03:59:51;4.40;;;3.40;;
21438;SDS011;10880;50.302;18.736;2022-10-16T04:02:17;3.57;;;3.23;;
21438;SDS011;10880;50.302;18.736;2022-10-16T04:04:44;4.23;;;3.40;;
21438;SDS011;10880;50.302;18.736;2022-10-16T04:07:10;3.77;;;3.07;;
21438;SDS011;10880;50.302;18.736;2022-10-16T04:09:36;3.93;;;3.07;;
21438;SDS011;10880;50.302;18.736;2022-10-16T04:12:04;4.80;;;3.60;;
21438;SDS011;10880;50.302;18.736;2022-10-16T04:14:30;6.17;;;4.40;;
21438;SDS011;10880;50.302;18.736;2022-10-16T04:16:57;5.47;;;4.30;;
21438;SDS011;10880;50.302;18.736;2022-10-16T04:19:23;5.07;;;3.90;;
21438;SDS011;10880;50.302;18.736;2022-10-16T04:21:50;3.63;;;3.30;;
21438;SDS011;10880;50.302;18.736;2022-10-16T04:24:16;4.90;;;4.03;;
21438;SDS011;10880;50.302;18.736;2022-10-16T04:26:42;4.37;;;3.67;;
21438;SDS011;10880;50.302;18.736;2022-10-16T04:29:08;4.37;;;3.80;;
21438;SDS011;10880;50.302;18.736;2022-10-16T04:31:35;4.53;;;3.97;;
21438;SDS011;10880;50.302;18.736;2022-10-16T04:34:01;5.03;;;3.90;;
21438;SDS011;10880;50.302;18.736;2022-10-16T04:36:27;5.17;;;4.47;;
21438;SDS011;10880;50.302;18.736;2022-10-16T04:38:53;7.07;;;5.13;;
21438;SDS011;10880;50.302;18.736;2022-10-16T04:41:20;7.47;;;4.97;;
21438;SDS011;10880;50.302;18.736;2022-10-16T04:43:46;5.27;;;4.40;;
21438;SDS011;10880;50.302;18.736;2022-10-16T04:46:13;4.57;;;4.07;;
21438;SDS011;10880;50.302;18.736;2022-10-16T04:48:39;3.90;;;3.30;;
21438;SDS011;10880;50.302;18.736;2022-10-16T04:51:05;4.90;;;3.73;;
21438;SDS011;10880;50.302;18.736;2022-10-16T04:53:32;4.63;;;4.07;;
21438;SDS011;10880;50.302;18.736;2022-10-16T04:55:59;4.43;;;4.03;;
21438;SDS011;10880;50.302;18.736;2022-10-16T04:58:25;4.47;;;3.60;;
21438;SDS011;10880;50.302;18.736;2022-10-16T05:00:51;4.23;;;3.67;;
21438;SDS011;10880;50.302;18.736;2022-10-16T05:03:17;5.60;;;4.33;;
21438;SDS011;10880;50.302;18.736;2022-10-16T05:05:45;5.03;;;3.90;;
21438;SDS011;10880;50.302;18.736;2022-10-16T05:08:12;4.40;;;3.80;;
21438;SDS011;10880;50.302;18.736;2022-10-16T05:10:44;4.90;;;4.10;;
21438;SDS011;10880;50.302;18.736;2022-10-16T05:13:11;3.97;;;3.47;;
21438;SDS011;10880;50.302;18.736;2022-10-16T05:15:37;4.77;;;4.00;;
21438;SDS011;10880;50.302;18.736;2022-10-16T05:18:03;6.13;;;4.27;;
21438;SDS011;10880;50.302;18.736;2022-10-16T05:20:30;5.83;;;4.03;;
21438;SDS011;10880;50.302;18.736;2022-10-16T05:22:57;5.53;;;4.10;;
21438;SDS011;10880;50.302;18.736;2022-10-16T05:25:23;5.97;;;4.47;;
21438;SDS011;10880;50.302;18.736;2022-10-16T05:27:50;6.30;;;4.90;;
21438;SDS011;10880;50.302;18.736;2022-10-16T05:30:17;6.23;;;4.57;;
21438;SDS011;10880;50.302;18.736;2022-10-16T05:32:48;8.77;;;4.60;;
21438;SDS011;10880;50.302;18.736;2022-10-16T05:35:15;6.30;;;4.63;;
21438;SDS011;10880;50.302;18.736;2022-10-16T05:37:44;7.03;;;4.80;;
21438;SDS011;10880;50.302;18.736;2022-10-16T05:40:10;6.20;;;4.40;;
21438;SDS011;10880;50.302;18.736;2022-10-16T05:42:38;5.77;;;4.13;;
21438;SDS011;10880;50.302;18.736;2022-10-16T05:45:05;5.77;;;4.30;;
21438;SDS011;10880;50.302;18.736;2022-10-16T05:47:34;8.23;;;5.07;;
21438;SDS011;10880;50.302;18.736;2022-10-16T05:50:00;7.43;;;4.90;;
21438;SDS011;10880;50.302;18.736;2022-10-16T05:52:27;6.50;;;4.90;;
21438;SDS011;10880;50.302;18.736;2022-10-16T05:54:53;5.50;;;4.37;;
21438;SDS011;10880;50.302;18.736;2022-10-16T05:57:21;7.23;;;4.70;;
21438;SDS011;10880;50.302;18.736;2022-10-16T05:59:47;6.10;;;4.27;;
21438;SDS011;10880;50.302;18.736;2022-10-16T06:02:14;7.13;;;4.40;;
21438;SDS011;10880;50.302;18.736;2022-10-16T06:04:40;5.70;;;4.53;;
21438;SDS011;10880;50.302;18.736;2022-10-16T06:07:07;6.53;;;3.87;;
21438;SDS011;10880;50.302;18.736;2022-10-16T06:09:33;5.70;;;4.37;;
21438;SDS011;10880;50.302;18.736;2022-10-16T06:12:00;4.77;;;3.87;;
21438;SDS011;10880;50.302;18.736;2022-10-16T06:14:26;4.13;;;3.70;;
21438;SDS011;10880;50.302;18.736;2022-10-16T06:20:25;4.00;;;3.33;;
21438;SDS011;10880;50.302;18.736;2022-10-16T06:22:52;4.17;;;3.57;;
21438;SDS011;10880;50.302;18.736;2022-10-16T06:25:18;4.60;;;3.43;;
21438;SDS011;10880;50.302;18.736;2022-10-16T06:27:44;3.40;;;3.10;;
21438;SDS011;10880;50.302;18.736;2022-10-16T06:30:11;4.33;;;3.40;;
21438;SDS011;10880;50.302;18.736;2022-10-16T06:32:37;4.00;;;3.60;;
21438;SDS011;10880;50.302;18.736;2022-10-16T06:35:03;6.40;;;4.67;;
21438;SDS011;10880;50.302;18.736;2022-10-16T06:37:31;6.70;;;5.03;;
21438;SDS011;10880;50.302;18.736;2022-10-16T06:39:57;5.97;;;4.50;;
21438;SDS011;10880;50.302;18.736;2022-10-16T06:42:27;5.17;;;4.37;;
21438;SDS011;10880;50.302;18.736;2022-10-16T06:44:53;6.33;;;4.63;;
21438;SDS011;10880;50.302;18.736;2022-10-16T06:47:19;8.40;;;4.43;;
21438;SDS011;10880;50.302;18.736;2022-10-16T06:49:45;5.93;;;4.20;;
21438;SDS011;10880;50.302;18.736;2022-10-16T06:52:12;7.20;;;4.97;;
21438;SDS011;10880;50.302;18.736;2022-10-16T06:54:38;6.10;;;4.67;;
21438;SDS011;10880;50.302;18.736;2022-10-16T06:57:04;5.93;;;4.60;;
21438;SDS011;10880;50.302;18.736;2022-10-16T06:59:31;7.60;;;4.67;;
21438;SDS011;10880;50.302;18.736;2022-10-16T07:01:57;7.97;;;5.67;;
21438;SDS011;10880;50.302;18.736;2022-10-16T07:04:23;6.07;;;4.63;;
21438;SDS011;10880;50.302;18.736;2022-10-16T07:06:49;5.70;;;4.13;;
21438;SDS011;10880;50.302;18.736;2022-10-16T07:09:17;9.30;;;5.97;;
21438;SDS011;10880;50.302;18.736;2022-10-16T07:11:43;6.17;;;4.43;;
21438;SDS011;10880;50.302;18.736;2022-10-16T07:14:16;10.23;;;6.17;;
21438;SDS011;10880;50.302;18.736;2022-10-16T07:16:44;6.47;;;4.70;;
21438;SDS011;10880;50.302;18.736;2022-10-16T07:19:11;7.90;;;5.53;;
21438;SDS011;10880;50.302;18.736;2022-10-16T07:21:40;8.27;;;5.77;;
21438;SDS011;10880;50.302;18.736;2022-10-16T07:24:10;8.27;;;5.80;;
21438;SDS011;10880;50.302;18.736;2022-10-16T07:26:39;11.40;;;7.80;;
21438;SDS011;10880;50.302;18.736;2022-10-16T07:29:15;8.77;;;6.23;;
21438;SDS011;10880;50.302;18.736;2022-10-16T07:31:44;7.97;;;5.63;;
21438;SDS011;10880;50.302;18.736;2022-10-16T07:34:11;7.60;;;5.07;;
21438;SDS011;10880;50.302;18.736;2022-10-16T07:36:39;9.63;;;6.03;;
21438;SDS011;10880;50.302;18.736;2022-10-16T07:39:06;7.10;;;4.97;;
21438;SDS011;10880;50.302;18.736;2022-10-16T07:41:32;8.07;;;5.47;;
21438;SDS011;10880;50.302;18.736;2022-10-16T07:44:02;6.57;;;4.57;;
21438;SDS011;10880;50.302;18.736;2022-10-16T07:46:29;9.00;;;6.00;;
21438;SDS011;10880;50.302;18.736;2022-10-16T07:48:57;8.03;;;5.83;;
21438;SDS011;10880;50.302;18.736;2022-10-16T07:51:24;5.83;;;4.30;;
21438;SDS011;10880;50.302;18.736;2022-10-16T07:53:51;8.30;;;4.57;;
21438;SDS011;10880;50.302;18.736;2022-10-16T07:56:19;6.07;;;4.77;;
21438;SDS011;10880;50.302;18.736;2022-10-16T07:58:46;5.50;;;4.43;;
21438;SDS011;10880;50.302;18.736;2022-10-16T08:01:15;5.97;;;4.33;;
21438;SDS011;10880;50.302;18.736;2022-10-16T08:03:42;9.27;;;6.43;;
21438;SDS011;10880;50.302;18.736;2022-10-16T08:06:10;7.07;;;4.87;;
21438;SDS011;10880;50.302;18.736;2022-10-16T08:08:36;5.37;;;4.70;;
21438;SDS011;10880;50.302;18.736;2022-10-16T08:11:02;5.87;;;4.73;;
21438;SDS011;10880;50.302;18.736;2022-10-16T08:13:29;8.13;;;6.10;;
21438;SDS011;10880;50.302;18.736;2022-10-16T08:15:56;9.53;;;6.07;;
21438;SDS011;10880;50.302;18.736;2022-10-16T08:18:23;9.37;;;6.60;;
21438;SDS011;10880;50.302;18.736;2022-10-16T08:20:56;11.03;;;7.47;;
21438;SDS011;10880;50.302;18.736;2022-10-16T08:23:23;6.83;;;5.30;;
21438;SDS011;10880;50.302;18.736;2022-10-16T08:25:53;8.87;;;5.37;;
21438;SDS011;10880;50.302;18.736;2022-10-16T08:28:20;11.30;;;7.93;;
21438;SDS011;10880;50.302;18.736;2022-10-16T08:30:46;10.30;;;7.37;;
21438;SDS011;10880;50.302;18.736;2022-10-16T08:33:13;10.63;;;8.00;;
21438;SDS011;10880;50.302;18.736;2022-10-16T08:35:39;9.93;;;7.30;;
21438;SDS011;10880;50.302;18.736;2022-10-16T08:38:06;9.83;;;7.40;;
21438;SDS011;10880;50.302;18.736;2022-10-16T08:40:33;8.70;;;6.03;;
21438;SDS011;10880;50.302;18.736;2022-10-16T08:51:06;7.53;;;6.00;;
21438;SDS011;10880;50.302;18.736;2022-10-16T08:56:06;9.40;;;6.83;;
21438;SDS011;10880;50.302;18.736;2022-10-16T08:58:33;8.10;;;6.20;;
21438;SDS011;10880;50.302;18.736;2022-10-16T09:01:00;12.47;;;5.70;;
21438;SDS011;10880;50.302;18.736;2022-10-16T09:09:18;8.87;;;7.27;;
21438;SDS011;10880;50.302;18.736;2022-10-16T09:12:08;5.90;;;5.20;;
21438;SDS011;10880;50.302;18.736;2022-10-16T09:14:45;5.63;;;4.50;;
21438;SDS011;10880;50.302;18.736;2022-10-16T09:22:51;8.10;;;6.20;;
21438;SDS011;10880;50.302;18.736;2022-10-16T09:25:29;6.67;;;5.57;;
21438;SDS011;10880;50.302;18.736;2022-10-16T09:27:58;5.97;;;5.10;;
21438;SDS011;10880;50.302;18.736;2022-10-16T09:30:26;8.50;;;6.07;;
21438;SDS011;10880;50.302;18.736;2022-10-16T09:32:57;9.27;;;7.33;;
21438;SDS011;10880;50.302;18.736;2022-10-16T09:35:46;8.37;;;6.57;;
21438;SDS011;10880;50.302;18.736;2022-10-16T09:38:23;9.50;;;6.80;;
21438;SDS011;10880;50.302;18.736;2022-10-16T09:40:54;7.27;;;5.90;;
21438;SDS011;10880;50.302;18.736;2022-10-16T09:48:59;6.30;;;4.97;;
21438;SDS011;10880;50.302;18.736;2022-10-16T09:51:31;8.27;;;6.43;;
21438;SDS011;10880;50.302;18.736;2022-10-16T09:54:12;8.20;;;6.77;;
21438;SDS011;10880;50.302;18.736;2022-10-16T09:56:43;9.60;;;6.93;;
21438;SDS011;10880;50.302;18.736;2022-10-16T09:59:12;6.83;;;5.10;;
21438;SDS011;10880;50.302;18.736;2022-10-16T10:04:15;4.90;;;4.40;;
21438;SDS011;10880;50.302;18.736;2022-10-16T10:06:51;6.63;;;4.73;;
21438;SDS011;10880;50.302;18.736;2022-10-16T10:09:39;6.23;;;5.20;;
21438;SDS011;10880;50.302;18.736;2022-10-16T10:12:23;4.43;;;3.93;;
21438;SDS011;10880;50.302;18.736;2022-10-16T10:15:04;6.97;;;5.37;;
21438;SDS011;10880;50.302;18.736;2022-10-16T10:17:45;8.93;;;6.43;;
21438;SDS011;10880;50.302;18.736;2022-10-16T10:20:26;6.20;;;4.90;;
21438;SDS011;10880;50.302;18.736;2022-10-16T10:22:55;7.97;;;6.00;;
21438;SDS011;10880;50.302;18.736;2022-10-16T10:36:42;8.77;;;6.20;;
21438;SDS011;10880;50.302;18.736;2022-10-16T10:39:22;5.93;;;4.77;;
21438;SDS011;10880;50.302;18.736;2022-10-16T10:42:05;4.40;;;4.00;;
21438;SDS011;10880;50.302;18.736;2022-10-16T10:50:35;5.87;;;4.20;;
21438;SDS011;10880;50.302;18.736;2022-10-16T10:53:16;4.97;;;4.13;;
21438;SDS011;10880;50.302;18.736;2022-10-16T10:56:06;7.40;;;4.93;;
21438;SDS011;10880;50.302;18.736;2022-10-16T11:01:39;6.40;;;5.10;;
21438;SDS011;10880;50.302;18.736;2022-10-16T11:04:44;5.47;;;4.27;;
21438;SDS011;10880;50.302;18.736;2022-10-16T11:09:57;4.60;;;3.93;;
21438;SDS011;10880;50.302;18.736;2022-10-16T11:12:30;9.47;;;6.70;;
21438;SDS011;10880;50.302;18.736;2022-10-16T11:17:39;6.23;;;4.80;;
21438;SDS011;10880;50.302;18.736;2022-10-16T11:20:27;6.83;;;4.80;;
21438;SDS011;10880;50.302;18.736;2022-10-16T11:26:00;8.57;;;6.83;;
21438;SDS011;10880;50.302;18.736;2022-10-16T11:28:32;6.47;;;4.87;;
21438;SDS011;10880;50.302;18.736;2022-10-16T11:33:43;8.80;;;5.70;;
21438;SDS011;10880;50.302;18.736;2022-10-16T11:36:19;6.73;;;5.20;;
21438;SDS011;10880;50.302;18.736;2022-10-16T11:38:54;7.60;;;5.80;;
21438;SDS011;10880;50.302;18.736;2022-10-16T11:41:45;8.73;;;6.47;;
21438;SDS011;10880;50.302;18.736;2022-10-16T11:46:47;5.57;;;4.47;;
21438;SDS011;10880;50.302;18.736;2022-10-16T11:49:18;6.20;;;5.03;;
21438;SDS011;10880;50.302;18.736;2022-10-16T11:51:49;5.60;;;4.73;;
21438;SDS011;10880;50.302;18.736;2022-10-16T11:54:21;5.17;;;4.17;;
21438;SDS011;10880;50.302;18.736;2022-10-16T11:57:09;6.30;;;4.30;;
21438;SDS011;10880;50.302;18.736;2022-10-16T11:59:52;6.00;;;5.00;;
21438;SDS011;10880;50.302;18.736;2022-10-16T12:04:53;6.10;;;4.40;;
21438;SDS011;10880;50.302;18.736;2022-10-16T12:07:27;4.70;;;4.20;;
21438;SDS011;10880;50.302;18.736;2022-10-16T12:10:11;5.60;;;4.97;;
21438;SDS011;10880;50.302;18.736;2022-10-16T12:13:26;4.53;;;3.90;;
21438;SDS011;10880;50.302;18.736;2022-10-16T12:18:41;3.20;;;2.90;;
21438;SDS011;10880;50.302;18.736;2022-10-16T12:21:10;3.50;;;3.20;;
21438;SDS011;10880;50.302;18.736;2022-10-16T12:23:48;3.80;;;3.40;;
21438;SDS011;10880;50.302;18.736;2022-10-16T12:29:08;3.00;;;2.80;;
21438;SDS011;10880;50.302;18.736;2022-10-16T12:31:52;3.80;;;3.40;;
21438;SDS011;10880;50.302;18.736;2022-10-16T12:34:23;3.63;;;3.23;;
21438;SDS011;10880;50.302;18.736;2022-10-16T12:36:54;3.17;;;2.87;;
21438;SDS011;10880;50.302;18.736;2022-10-16T12:39:33;3.73;;;3.43;;
21438;SDS011;10880;50.302;18.736;2022-10-16T12:42:00;5.00;;;4.03;;
21438;SDS011;10880;50.302;18.736;2022-10-16T12:44:32;3.50;;;3.10;;
21438;SDS011;10880;50.302;18.736;2022-10-16T12:47:01;3.80;;;3.30;;
21438;SDS011;10880;50.302;18.736;2022-10-16T12:51:54;3.83;;;3.13;;
21438;SDS011;10880;50.302;18.736;2022-10-16T12:54:37;4.13;;;3.47;;
21438;SDS011;10880;50.302;18.736;2022-10-16T13:06:03;3.97;;;3.40;;
21438;SDS011;10880;50.302;18.736;2022-10-16T13:08:44;5.70;;;4.50;;
21438;SDS011;10880;50.302;18.736;2022-10-16T13:11:20;5.37;;;4.20;;
21438;SDS011;10880;50.302;18.736;2022-10-16T13:27:59;8.33;;;6.63;;
21438;SDS011;10880;50.302;18.736;2022-10-16T13:30:29;8.63;;;6.70;;
21438;SDS011;10880;50.302;18.736;2022-10-16T13:33:02;5.57;;;4.90;;
21438;SDS011;10880;50.302;18.736;2022-10-16T13:35:30;5.73;;;5.07;;
21438;SDS011;10880;50.302;18.736;2022-10-16T13:40:37;5.87;;;4.63;;
21438;SDS011;10880;50.302;18.736;2022-10-16T13:43:28;5.17;;;4.40;;
21438;SDS011;10880;50.302;18.736;2022-10-16T13:46:02;4.60;;;4.10;;
21438;SDS011;10880;50.302;18.736;2022-10-16T13:48:33;5.37;;;4.40;;
21438;SDS011;10880;50.302;18.736;2022-10-16T13:51:11;5.73;;;4.90;;
21438;SDS011;10880;50.302;18.736;2022-10-16T13:53:40;6.23;;;5.33;;
21438;SDS011;10880;50.302;18.736;2022-10-16T13:56:10;8.63;;;6.53;;
21438;SDS011;10880;50.302;18.736;2022-10-16T13:58:38;5.87;;;5.27;;
21438;SDS011;10880;50.302;18.736;2022-10-16T14:01:05;6.37;;;5.23;;
21438;SDS011;10880;50.302;18.736;2022-10-16T14:03:41;6.40;;;5.23;;
21438;SDS011;10880;50.302;18.736;2022-10-16T14:06:11;5.00;;;4.47;;
21438;SDS011;10880;50.302;18.736;2022-10-16T14:08:44;3.87;;;3.47;;
21438;SDS011;10880;50.302;18.736;2022-10-16T14:11:19;7.70;;;5.57;;
21438;SDS011;10880;50.302;18.736;2022-10-16T14:13:49;15.37;;;8.87;;
21438;SDS011;10880;50.302;18.736;2022-10-16T14:16:17;9.30;;;6.50;;
21438;SDS011;10880;50.302;18.736;2022-10-16T14:21:23;6.70;;;5.30;;
21438;SDS011;10880;50.302;18.736;2022-10-16T14:23:52;7.07;;;5.50;;
21438;SDS011;10880;50.302;18.736;2022-10-16T14:26:20;5.80;;;5.17;;
21438;SDS011;10880;50.302;18.736;2022-10-16T14:28:51;4.17;;;3.77;;
21438;SDS011;10880;50.302;18.736;2022-10-16T14:31:31;5.63;;;4.63;;
21438;SDS011;10880;50.302;18.736;2022-10-16T14:33:59;5.00;;;4.13;;
21438;SDS011;10880;50.302;18.736;2022-10-16T14:36:26;4.90;;;4.40;;
21438;SDS011;10880;50.302;18.736;2022-10-16T14:38:57;3.67;;;3.37;;
21438;SDS011;10880;50.302;18.736;2022-10-16T14:41:29;4.70;;;4.00;;
21438;SDS011;10880;50.302;18.736;2022-10-16T14:44:00;5.33;;;4.60;;
21438;SDS011;10880;50.302;18.736;2022-10-16T14:49:03;5.07;;;4.33;;
21438;SDS011;10880;50.302;18.736;2022-10-16T14:51:40;4.10;;;3.50;;
21438;SDS011;10880;50.302;18.736;2022-10-16T14:54:08;3.83;;;3.40;;
21438;SDS011;10880;50.302;18.736;2022-10-16T14:56:51;4.13;;;3.47;;
21438;SDS011;10880;50.302;18.736;2022-10-16T14:59:28;3.90;;;3.50;;
21438;SDS011;10880;50.302;18.736;2022-10-16T15:04:43;3.87;;;3.43;;
21438;SDS011;10880;50.302;18.736;2022-10-16T15:07:10;3.33;;;3.03;;
21438;SDS011;10880;50.302;18.736;2022-10-16T15:09:36;3.90;;;3.50;;
21438;SDS011;10880;50.302;18.736;2022-10-16T15:12:03;4.43;;;4.00;;
21438;SDS011;10880;50.302;18.736;2022-10-16T15:14:29;4.23;;;3.60;;
21438;SDS011;10880;50.302;18.736;2022-10-16T15:16:56;7.20;;;5.10;;
21438;SDS011;10880;50.302;18.736;2022-10-16T15:19:23;5.27;;;4.30;;
21438;SDS011;10880;50.302;18.736;2022-10-16T15:21:49;4.53;;;3.63;;
21438;SDS011;10880;50.302;18.736;2022-10-16T15:24:16;4.17;;;3.73;;
21438;SDS011;10880;50.302;18.736;2022-10-16T15:26:42;5.00;;;4.10;;
21438;SDS011;10880;50.302;18.736;2022-10-16T15:29:15;3.97;;;3.57;;
21438;SDS011;10880;50.302;18.736;2022-10-16T15:31:49;5.60;;;4.00;;
21438;SDS011;10880;50.302;18.736;2022-10-16T15:34:16;4.00;;;3.60;;
21438;SDS011;10880;50.302;18.736;2022-10-16T15:36:44;7.10;;;5.70;;
21438;SDS011;10880;50.302;18.736;2022-10-16T15:39:18;7.57;;;4.67;;
21438;SDS011;10880;50.302;18.736;2022-10-16T15:41:45;5.20;;;4.37;;
21438;SDS011;10880;50.302;18.736;2022-10-16T15:44:19;4.50;;;3.87;;
21438;SDS011;10880;50.302;18.736;2022-10-16T15:46:47;4.33;;;3.80;;
21438;SDS011;10880;50.302;18.736;2022-10-16T15:49:13;3.63;;;3.20;;
21438;SDS011;10880;50.302;18.736;2022-10-16T15:51:41;4.93;;;4.30;;
21438;SDS011;10880;50.302;18.736;2022-10-16T15:54:08;7.83;;;5.80;;
21438;SDS011;10880;50.302;18.736;2022-10-16T15:56:34;6.80;;;5.53;;
21438;SDS011;10880;50.302;18.736;2022-10-16T15:59:02;8.40;;;6.30;;
21438;SDS011;10880;50.302;18.736;2022-10-16T16:01:32;5.87;;;5.20;;
21438;SDS011;10880;50.302;18.736;2022-10-16T16:03:59;9.67;;;7.07;;
21438;SDS011;10880;50.302;18.736;2022-10-16T16:06:26;10.43;;;7.30;;
21438;SDS011;10880;50.302;18.736;2022-10-16T16:08:52;12.03;;;8.07;;
21438;SDS011;10880;50.302;18.736;2022-10-16T16:11:19;9.07;;;6.67;;
21438;SDS011;10880;50.302;18.736;2022-10-16T16:13:46;9.23;;;6.33;;
21438;SDS011;10880;50.302;18.736;2022-10-16T16:16:13;7.13;;;5.80;;
21438;SDS011;10880;50.302;18.736;2022-10-16T16:18:41;5.63;;;4.50;;
21438;SDS011;10880;50.302;18.736;2022-10-16T16:21:08;6.60;;;5.70;;
21438;SDS011;10880;50.302;18.736;2022-10-16T16:23:36;10.60;;;7.30;;
21438;SDS011;10880;50.302;18.736;2022-10-16T16:26:10;6.80;;;5.57;;
21438;SDS011;10880;50.302;18.736;2022-10-16T16:28:39;4.90;;;4.40;;
21438;SDS011;10880;50.302;18.736;2022-10-16T16:31:07;6.90;;;5.00;;
21438;SDS011;10880;50.302;18.736;2022-10-16T16:33:34;8.93;;;5.63;;
21438;SDS011;10880;50.302;18.736;2022-10-16T16:36:02;8.27;;;5.93;;
21438;SDS011;10880;50.302;18.736;2022-10-16T16:38:32;8.93;;;6.60;;
21438;SDS011;10880;50.302;18.736;2022-10-16T16:40:58;7.13;;;5.70;;
21438;SDS011;10880;50.302;18.736;2022-10-16T16:43:25;11.33;;;5.10;;
21438;SDS011;10880;50.302;18.736;2022-10-16T16:45:53;6.30;;;4.30;;
21438;SDS011;10880;50.302;18.736;2022-10-16T16:48:22;6.03;;;4.93;;
21438;SDS011;10880;50.302;18.736;2022-10-16T16:50:54;5.23;;;4.30;;
21438;SDS011;10880;50.302;18.736;2022-10-16T16:53:20;8.53;;;5.60;;